sensor_id;sensor_type;location;lat;lon;timestamp;P1;durP1;ratioP1;P2;durP2;ratioP2
19889;SDS011;10107;51.198;6.824;2022-12-18T00:00:21;18.58;;;10.63;;
19889;SDS011;10107;51.198;6.824;2022-12-18T00:04:23;17.55;;;9.00;;
19889;SDS011;10107;51.198;6.824;2022-12-18T00:08:29;16.00;;;9.55;;
19889;SDS011;10107;51.198;6.824;2022-12-18T00:12:33;17.02;;;9.00;;
19889;SDS011;10107;51.198;6.824;2022-12-18T00:16:36;17.75;;;9.13;;
19889;SDS011;10107;51.198;6.824;2022-12-18T00:24:40;15.45;;;8.88;;
19889;SDS011;10107;51.198;6.824;2022-12-18T00:28:42;14.95;;;8.82;;
19889;SDS011;10107;51.198;6.824;2022-12-18T00:32:48;14.23;;;7.80;;
19889;SDS011;10107;51.198;6.824;2022-12-18T00:36:50;12.73;;;7.30;;
19889;SDS011;10107;51.198;6.824;2022-12-18T00:40:55;16.23;;;9.15;;
19889;SDS011;10107;51.198;6.824;2022-12-18T00:45:00;12.32;;;8.27;;
19889;SDS011;10107;51.198;6.824;2022-12-18T00:49:03;14.05;;;8.50;;
19889;SDS011;10107;51.198;6.824;2022-12-18T00:53:08;16.75;;;9.07;;
19889;SDS011;10107;51.198;6.824;2022-12-18T00:57:16;16.80;;;9.85;;
19889;SDS011;10107;51.198;6.824;2022-12-18T01:01:27;16.08;;;9.13;;
19889;SDS011;10107;51.198;6.824;2022-12-18T01:05:41;15.05;;;7.95;;
19889;SDS011;10107;51.198;6.824;2022-12-18T01:09:47;15.20;;;8.82;;
19889;SDS011;10107;51.198;6.824;2022-12-18T01:13:52;16.73;;;8.90;;
19889;SDS011;10107;51.198;6.824;2022-12-18T01:17:56;16.50;;;9.35;;
19889;SDS011;10107;51.198;6.824;2022-12-18T01:22:02;18.55;;;9.27;;
19889;SDS011;10107;51.198;6.824;2022-12-18T01:26:05;15.45;;;8.98;;
19889;SDS011;10107;51.198;6.824;2022-12-18T01:30:09;16.02;;;8.63;;
19889;SDS011;10107;51.198;6.824;2022-12-18T01:34:12;16.48;;;8.82;;
19889;SDS011;10107;51.198;6.824;2022-12-18T01:42:33;13.85;;;7.72;;
19889;SDS011;10107;51.198;6.824;2022-12-18T01:46:37;12.02;;;7.93;;
19889;SDS011;10107;51.198;6.824;2022-12-18T01:50:39;15.27;;;8.65;;
19889;SDS011;10107;51.198;6.824;2022-12-18T01:54:45;13.90;;;8.57;;
19889;SDS011;10107;51.198;6.824;2022-12-18T01:58:50;15.52;;;8.38;;
19889;SDS011;10107;51.198;6.824;2022-12-18T02:02:56;15.43;;;8.55;;
19889;SDS011;10107;51.198;6.824;2022-12-18T02:06:59;15.43;;;7.80;;
19889;SDS011;10107;51.198;6.824;2022-12-18T02:11:11;13.35;;;7.72;;
19889;SDS011;10107;51.198;6.824;2022-12-18T02:15:22;15.80;;;7.65;;
19889;SDS011;10107;51.198;6.824;2022-12-18T02:19:37;14.30;;;8.00;;
19889;SDS011;10107;51.198;6.824;2022-12-18T02:23:47;13.80;;;7.13;;
19889;SDS011;10107;51.198;6.824;2022-12-18T02:28:04;14.48;;;7.53;;
19889;SDS011;10107;51.198;6.824;2022-12-18T02:32:13;15.13;;;8.10;;
19889;SDS011;10107;51.198;6.824;2022-12-18T02:36:21;13.90;;;7.65;;
19889;SDS011;10107;51.198;6.824;2022-12-18T02:40:27;14.98;;;7.50;;
19889;SDS011;10107;51.198;6.824;2022-12-18T02:44:33;12.75;;;7.20;;
19889;SDS011;10107;51.198;6.824;2022-12-18T02:48:38;13.18;;;7.63;;
19889;SDS011;10107;51.198;6.824;2022-12-18T02:52:49;14.27;;;8.07;;
19889;SDS011;10107;51.198;6.824;2022-12-18T02:56:57;14.23;;;7.10;;
19889;SDS011;10107;51.198;6.824;2022-12-18T03:01:11;14.88;;;7.63;;
19889;SDS011;10107;51.198;6.824;2022-12-18T03:05:20;13.73;;;7.22;;
19889;SDS011;10107;51.198;6.824;2022-12-18T03:09:29;15.55;;;8.00;;
19889;SDS011;10107;51.198;6.824;2022-12-18T03:13:39;15.85;;;7.95;;
19889;SDS011;10107;51.198;6.824;2022-12-18T03:17:50;14.25;;;7.43;;
19889;SDS011;10107;51.198;6.824;2022-12-18T03:22:02;12.45;;;7.32;;
19889;SDS011;10107;51.198;6.824;2022-12-18T03:26:19;14.18;;;7.93;;
19889;SDS011;10107;51.198;6.824;2022-12-18T03:30:30;17.23;;;8.48;;
19889;SDS011;10107;51.198;6.824;2022-12-18T03:34:40;15.60;;;8.38;;
19889;SDS011;10107;51.198;6.824;2022-12-18T03:38:50;17.50;;;7.95;;
19889;SDS011;10107;51.198;6.824;2022-12-18T03:42:55;15.93;;;8.27;;
19889;SDS011;10107;51.198;6.824;2022-12-18T03:47:07;15.65;;;7.57;;
19889;SDS011;10107;51.198;6.824;2022-12-18T03:51:18;14.80;;;8.02;;
19889;SDS011;10107;51.198;6.824;2022-12-18T03:55:29;13.02;;;7.20;;
19889;SDS011;10107;51.198;6.824;2022-12-18T03:59:38;14.70;;;7.53;;
19889;SDS011;10107;51.198;6.824;2022-12-18T04:03:43;13.70;;;7.53;;
19889;SDS011;10107;51.198;6.824;2022-12-18T04:07:55;18.60;;;9.48;;
19889;SDS011;10107;51.198;6.824;2022-12-18T04:12:01;17.00;;;8.38;;
19889;SDS011;10107;51.198;6.824;2022-12-18T04:16:04;15.45;;;8.52;;
19889;SDS011;10107;51.198;6.824;2022-12-18T04:20:07;16.83;;;8.80;;
19889;SDS011;10107;51.198;6.824;2022-12-18T04:24:18;14.40;;;7.85;;
19889;SDS011;10107;51.198;6.824;2022-12-18T04:28:36;13.43;;;7.22;;
19889;SDS011;10107;51.198;6.824;2022-12-18T04:32:40;15.55;;;7.20;;
19889;SDS011;10107;51.198;6.824;2022-12-18T04:36:43;15.82;;;7.90;;
19889;SDS011;10107;51.198;6.824;2022-12-18T04:40:52;12.18;;;7.20;;
19889;SDS011;10107;51.198;6.824;2022-12-18T04:44:59;14.15;;;7.75;;
19889;SDS011;10107;51.198;6.824;2022-12-18T04:49:05;13.93;;;7.07;;
19889;SDS011;10107;51.198;6.824;2022-12-18T04:53:07;13.40;;;7.97;;
19889;SDS011;10107;51.198;6.824;2022-12-18T04:57:11;12.30;;;7.03;;
19889;SDS011;10107;51.198;6.824;2022-12-18T05:01:16;14.43;;;7.82;;
19889;SDS011;10107;51.198;6.824;2022-12-18T05:05:21;13.35;;;7.50;;
19889;SDS011;10107;51.198;6.824;2022-12-18T05:09:25;15.02;;;7.78;;
19889;SDS011;10107;51.198;6.824;2022-12-18T05:13:32;17.00;;;8.70;;
19889;SDS011;10107;51.198;6.824;2022-12-18T05:17:36;15.77;;;8.27;;
19889;SDS011;10107;51.198;6.824;2022-12-18T05:21:41;14.95;;;7.32;;
19889;SDS011;10107;51.198;6.824;2022-12-18T05:25:46;15.32;;;8.38;;
19889;SDS011;10107;51.198;6.824;2022-12-18T05:29:50;13.02;;;7.72;;
19889;SDS011;10107;51.198;6.824;2022-12-18T05:33:55;16.50;;;8.98;;
19889;SDS011;10107;51.198;6.824;2022-12-18T05:37:57;13.45;;;7.30;;
19889;SDS011;10107;51.198;6.824;2022-12-18T05:42:00;12.35;;;5.82;;
19889;SDS011;10107;51.198;6.824;2022-12-18T05:46:07;16.38;;;8.50;;
19889;SDS011;10107;51.198;6.824;2022-12-18T05:50:15;16.30;;;8.20;;
19889;SDS011;10107;51.198;6.824;2022-12-18T05:54:18;14.75;;;7.82;;
19889;SDS011;10107;51.198;6.824;2022-12-18T05:58:21;17.98;;;8.27;;
19889;SDS011;10107;51.198;6.824;2022-12-18T06:02:25;12.90;;;6.70;;
19889;SDS011;10107;51.198;6.824;2022-12-18T06:06:27;14.43;;;7.35;;
19889;SDS011;10107;51.198;6.824;2022-12-18T06:10:29;13.35;;;7.00;;
19889;SDS011;10107;51.198;6.824;2022-12-18T06:14:30;14.05;;;7.20;;
19889;SDS011;10107;51.198;6.824;2022-12-18T06:18:33;15.10;;;7.45;;
19889;SDS011;10107;51.198;6.824;2022-12-18T06:22:35;13.00;;;7.38;;
19889;SDS011;10107;51.198;6.824;2022-12-18T06:26:37;16.02;;;8.00;;
19889;SDS011;10107;51.198;6.824;2022-12-18T06:30:39;13.00;;;7.47;;
19889;SDS011;10107;51.198;6.824;2022-12-18T06:34:45;11.52;;;6.78;;
19889;SDS011;10107;51.198;6.824;2022-12-18T06:38:47;17.88;;;7.60;;
19889;SDS011;10107;51.198;6.824;2022-12-18T06:42:49;13.43;;;7.40;;
19889;SDS011;10107;51.198;6.824;2022-12-18T06:46:50;13.68;;;7.50;;
19889;SDS011;10107;51.198;6.824;2022-12-18T06:50:53;14.05;;;7.70;;
19889;SDS011;10107;51.198;6.824;2022-12-18T06:54:55;16.20;;;8.13;;
19889;SDS011;10107;51.198;6.824;2022-12-18T06:58:57;16.10;;;7.97;;
19889;SDS011;10107;51.198;6.824;2022-12-18T07:02:59;13.23;;;7.78;;
19889;SDS011;10107;51.198;6.824;2022-12-18T07:07:02;14.05;;;7.78;;
19889;SDS011;10107;51.198;6.824;2022-12-18T07:11:03;18.63;;;8.88;;
19889;SDS011;10107;51.198;6.824;2022-12-18T07:15:06;13.60;;;7.53;;
19889;SDS011;10107;51.198;6.824;2022-12-18T07:19:08;14.10;;;8.35;;
19889;SDS011;10107;51.198;6.824;2022-12-18T07:23:11;14.77;;;8.10;;
19889;SDS011;10107;51.198;6.824;2022-12-18T07:31:15;13.60;;;7.30;;
19889;SDS011;10107;51.198;6.824;2022-12-18T07:35:18;13.70;;;7.07;;
19889;SDS011;10107;51.198;6.824;2022-12-18T07:39:21;14.20;;;7.78;;
19889;SDS011;10107;51.198;6.824;2022-12-18T07:43:23;14.43;;;7.47;;
19889;SDS011;10107;51.198;6.824;2022-12-18T07:47:24;13.10;;;7.53;;
19889;SDS011;10107;51.198;6.824;2022-12-18T07:51:26;13.73;;;7.28;;
19889;SDS011;10107;51.198;6.824;2022-12-18T07:55:29;14.07;;;7.60;;
19889;SDS011;10107;51.198;6.824;2022-12-18T08:03:32;13.80;;;7.68;;
19889;SDS011;10107;51.198;6.824;2022-12-18T08:07:34;13.35;;;7.95;;
19889;SDS011;10107;51.198;6.824;2022-12-18T08:11:38;13.48;;;7.57;;
19889;SDS011;10107;51.198;6.824;2022-12-18T08:15:39;12.73;;;7.00;;
19889;SDS011;10107;51.198;6.824;2022-12-18T08:19:41;13.77;;;6.90;;
19889;SDS011;10107;51.198;6.824;2022-12-18T08:23:43;13.80;;;7.32;;
19889;SDS011;10107;51.198;6.824;2022-12-18T08:27:46;13.68;;;7.80;;
19889;SDS011;10107;51.198;6.824;2022-12-18T08:31:48;13.95;;;7.65;;
19889;SDS011;10107;51.198;6.824;2022-12-18T08:35:49;16.40;;;8.43;;
19889;SDS011;10107;51.198;6.824;2022-12-18T08:39:51;14.55;;;7.97;;
19889;SDS011;10107;51.198;6.824;2022-12-18T08:43:54;18.92;;;9.20;;
19889;SDS011;10107;51.198;6.824;2022-12-18T08:48:13;16.77;;;9.43;;
19889;SDS011;10107;51.198;6.824;2022-12-18T08:52:15;16.23;;;8.82;;
19889;SDS011;10107;51.198;6.824;2022-12-18T08:56:16;15.60;;;8.60;;
19889;SDS011;10107;51.198;6.824;2022-12-18T09:00:19;15.10;;;8.45;;
19889;SDS011;10107;51.198;6.824;2022-12-18T09:08:23;16.20;;;8.82;;
19889;SDS011;10107;51.198;6.824;2022-12-18T09:12:24;14.82;;;8.65;;
19889;SDS011;10107;51.198;6.824;2022-12-18T09:16:28;16.27;;;8.37;;
19889;SDS011;10107;51.198;6.824;2022-12-18T09:20:31;19.15;;;9.20;;
19889;SDS011;10107;51.198;6.824;2022-12-18T09:24:33;16.88;;;9.35;;
19889;SDS011;10107;51.198;6.824;2022-12-18T09:28:34;16.25;;;8.85;;
19889;SDS011;10107;51.198;6.824;2022-12-18T09:32:37;18.17;;;9.55;;
19889;SDS011;10107;51.198;6.824;2022-12-18T09:36:39;18.38;;;9.25;;
19889;SDS011;10107;51.198;6.824;2022-12-18T09:40:41;18.50;;;9.13;;
19889;SDS011;10107;51.198;6.824;2022-12-18T09:44:45;17.48;;;9.25;;
19889;SDS011;10107;51.198;6.824;2022-12-18T09:48:53;16.90;;;8.50;;
19889;SDS011;10107;51.198;6.824;2022-12-18T09:53:02;15.70;;;8.80;;
19889;SDS011;10107;51.198;6.824;2022-12-18T09:57:10;16.63;;;9.35;;
19889;SDS011;10107;51.198;6.824;2022-12-18T10:01:16;17.90;;;8.70;;
19889;SDS011;10107;51.198;6.824;2022-12-18T10:05:27;15.45;;;8.98;;
19889;SDS011;10107;51.198;6.824;2022-12-18T10:09:37;16.90;;;9.60;;
19889;SDS011;10107;51.198;6.824;2022-12-18T10:13:45;17.00;;;8.93;;
19889;SDS011;10107;51.198;6.824;2022-12-18T10:17:54;17.92;;;9.40;;
19889;SDS011;10107;51.198;6.824;2022-12-18T10:22:03;18.83;;;9.40;;
19889;SDS011;10107;51.198;6.824;2022-12-18T10:26:16;18.10;;;9.75;;
19889;SDS011;10107;51.198;6.824;2022-12-18T10:30:19;16.33;;;9.15;;
19889;SDS011;10107;51.198;6.824;2022-12-18T10:34:21;20.17;;;10.23;;
19889;SDS011;10107;51.198;6.824;2022-12-18T10:38:26;14.95;;;8.60;;
19889;SDS011;10107;51.198;6.824;2022-12-18T10:42:29;17.10;;;9.38;;
19889;SDS011;10107;51.198;6.824;2022-12-18T10:46:32;15.35;;;8.20;;
19889;SDS011;10107;51.198;6.824;2022-12-18T10:50:34;16.45;;;8.77;;
19889;SDS011;10107;51.198;6.824;2022-12-18T10:54:40;14.85;;;8.93;;
19889;SDS011;10107;51.198;6.824;2022-12-18T10:58:54;13.27;;;8.02;;
19889;SDS011;10107;51.198;6.824;2022-12-18T11:02:58;14.80;;;8.18;;
19889;SDS011;10107;51.198;6.824;2022-12-18T11:07:00;15.93;;;9.00;;
19889;SDS011;10107;51.198;6.824;2022-12-18T11:11:06;16.35;;;8.68;;
19889;SDS011;10107;51.198;6.824;2022-12-18T11:15:18;14.02;;;8.23;;
19889;SDS011;10107;51.198;6.824;2022-12-18T11:19:26;14.20;;;7.90;;
19889;SDS011;10107;51.198;6.824;2022-12-18T11:23:33;16.55;;;9.07;;
19889;SDS011;10107;51.198;6.824;2022-12-18T11:27:37;11.77;;;6.57;;
19889;SDS011;10107;51.198;6.824;2022-12-18T11:31:40;15.73;;;8.77;;
19889;SDS011;10107;51.198;6.824;2022-12-18T11:35:48;20.90;;;9.35;;
19889;SDS011;10107;51.198;6.824;2022-12-18T11:39:54;17.45;;;9.45;;
19889;SDS011;10107;51.198;6.824;2022-12-18T11:44:03;17.88;;;10.35;;
19889;SDS011;10107;51.198;6.824;2022-12-18T11:48:14;16.05;;;9.63;;
19889;SDS011;10107;51.198;6.824;2022-12-18T11:52:23;21.33;;;9.90;;
19889;SDS011;10107;51.198;6.824;2022-12-18T11:56:29;21.85;;;10.75;;
19889;SDS011;10107;51.198;6.824;2022-12-18T12:00:36;19.50;;;11.70;;
19889;SDS011;10107;51.198;6.824;2022-12-18T12:04:56;21.58;;;10.55;;
19889;SDS011;10107;51.198;6.824;2022-12-18T12:09:12;20.23;;;10.75;;
19889;SDS011;10107;51.198;6.824;2022-12-18T12:13:26;18.52;;;10.30;;
19889;SDS011;10107;51.198;6.824;2022-12-18T12:17:41;20.17;;;10.50;;
19889;SDS011;10107;51.198;6.824;2022-12-18T12:21:50;19.83;;;10.07;;
19889;SDS011;10107;51.198;6.824;2022-12-18T12:26:01;20.02;;;10.35;;
19889;SDS011;10107;51.198;6.824;2022-12-18T12:30:11;18.48;;;11.02;;
19889;SDS011;10107;51.198;6.824;2022-12-18T12:34:21;19.48;;;10.93;;
19889;SDS011;10107;51.198;6.824;2022-12-18T12:38:30;22.42;;;12.13;;
19889;SDS011;10107;51.198;6.824;2022-12-18T12:42:38;20.08;;;11.13;;
19889;SDS011;10107;51.198;6.824;2022-12-18T12:47:04;26.15;;;12.43;;
19889;SDS011;10107;51.198;6.824;2022-12-18T12:51:15;23.23;;;12.27;;
19889;SDS011;10107;51.198;6.824;2022-12-18T12:55:20;23.50;;;12.63;;
19889;SDS011;10107;51.198;6.824;2022-12-18T12:59:24;27.65;;;12.60;;
19889;SDS011;10107;51.198;6.824;2022-12-18T13:03:35;21.13;;;12.38;;
19889;SDS011;10107;51.198;6.824;2022-12-18T13:07:52;22.35;;;12.80;;
19889;SDS011;10107;51.198;6.824;2022-12-18T13:12:00;22.15;;;12.65;;
19889;SDS011;10107;51.198;6.824;2022-12-18T13:16:24;23.63;;;12.05;;
19889;SDS011;10107;51.198;6.824;2022-12-18T13:20:35;25.13;;;12.77;;
19889;SDS011;10107;51.198;6.824;2022-12-18T13:24:40;24.15;;;13.38;;
19889;SDS011;10107;51.198;6.824;2022-12-18T13:28:51;24.50;;;12.85;;
19889;SDS011;10107;51.198;6.824;2022-12-18T13:32:59;25.95;;;13.77;;
19889;SDS011;10107;51.198;6.824;2022-12-18T13:37:41;24.25;;;12.93;;
19889;SDS011;10107;51.198;6.824;2022-12-18T13:41:47;25.25;;;13.02;;
19889;SDS011;10107;51.198;6.824;2022-12-18T13:45:58;27.00;;;13.25;;
19889;SDS011;10107;51.198;6.824;2022-12-18T13:50:09;26.02;;;13.60;;
19889;SDS011;10107;51.198;6.824;2022-12-18T13:54:19;26.30;;;13.13;;
19889;SDS011;10107;51.198;6.824;2022-12-18T13:58:26;27.83;;;13.57;;
19889;SDS011;10107;51.198;6.824;2022-12-18T14:02:28;25.63;;;13.98;;
19889;SDS011;10107;51.198;6.824;2022-12-18T14:06:30;28.45;;;14.25;;
19889;SDS011;10107;51.198;6.824;2022-12-18T14:10:32;26.88;;;13.75;;
19889;SDS011;10107;51.198;6.824;2022-12-18T14:14:35;24.02;;;13.18;;
19889;SDS011;10107;51.198;6.824;2022-12-18T14:26:45;24.33;;;12.98;;
19889;SDS011;10107;51.198;6.824;2022-12-18T14:30:49;24.35;;;13.15;;
19889;SDS011;10107;51.198;6.824;2022-12-18T14:34:52;28.88;;;14.32;;
19889;SDS011;10107;51.198;6.824;2022-12-18T14:38:55;29.80;;;13.55;;
19889;SDS011;10107;51.198;6.824;2022-12-18T14:42:59;27.40;;;14.13;;
19889;SDS011;10107;51.198;6.824;2022-12-18T14:47:02;26.52;;;14.10;;
19889;SDS011;10107;51.198;6.824;2022-12-18T14:51:04;28.25;;;14.63;;
19889;SDS011;10107;51.198;6.824;2022-12-18T14:55:13;30.40;;;15.40;;
19889;SDS011;10107;51.198;6.824;2022-12-18T14:59:17;29.23;;;14.68;;
19889;SDS011;10107;51.198;6.824;2022-12-18T15:03:23;29.35;;;15.30;;
19889;SDS011;10107;51.198;6.824;2022-12-18T15:07:26;26.15;;;13.93;;
19889;SDS011;10107;51.198;6.824;2022-12-18T15:11:30;26.20;;;13.90;;
19889;SDS011;10107;51.198;6.824;2022-12-18T15:15:44;32.10;;;16.23;;
19889;SDS011;10107;51.198;6.824;2022-12-18T15:19:48;31.08;;;16.33;;
19889;SDS011;10107;51.198;6.824;2022-12-18T15:23:52;26.80;;;15.10;;
19889;SDS011;10107;51.198;6.824;2022-12-18T15:27:54;34.28;;;15.38;;
19889;SDS011;10107;51.198;6.824;2022-12-18T15:32:00;32.75;;;16.30;;
19889;SDS011;10107;51.198;6.824;2022-12-18T15:36:07;29.77;;;16.20;;
19889;SDS011;10107;51.198;6.824;2022-12-18T15:40:14;32.42;;;16.35;;
19889;SDS011;10107;51.198;6.824;2022-12-18T15:44:21;30.35;;;16.40;;
19889;SDS011;10107;51.198;6.824;2022-12-18T15:48:24;27.75;;;14.63;;
19889;SDS011;10107;51.198;6.824;2022-12-18T15:52:27;30.15;;;15.80;;
19889;SDS011;10107;51.198;6.824;2022-12-18T15:56:28;32.53;;;15.60;;
19889;SDS011;10107;51.198;6.824;2022-12-18T16:00:48;30.65;;;16.58;;
19889;SDS011;10107;51.198;6.824;2022-12-18T16:04:50;29.17;;;15.93;;
19889;SDS011;10107;51.198;6.824;2022-12-18T16:08:55;29.30;;;16.85;;
19889;SDS011;10107;51.198;6.824;2022-12-18T16:12:56;34.08;;;17.25;;
19889;SDS011;10107;51.198;6.824;2022-12-18T16:16:59;30.13;;;15.80;;
19889;SDS011;10107;51.198;6.824;2022-12-18T16:21:02;33.50;;;17.65;;
19889;SDS011;10107;51.198;6.824;2022-12-18T16:25:05;31.52;;;17.25;;
19889;SDS011;10107;51.198;6.824;2022-12-18T16:29:12;31.02;;;16.48;;
19889;SDS011;10107;51.198;6.824;2022-12-18T16:33:13;36.25;;;17.20;;
19889;SDS011;10107;51.198;6.824;2022-12-18T16:37:15;34.38;;;17.13;;
19889;SDS011;10107;51.198;6.824;2022-12-18T16:41:19;32.83;;;18.05;;
19889;SDS011;10107;51.198;6.824;2022-12-18T16:45:32;37.25;;;19.00;;
19889;SDS011;10107;51.198;6.824;2022-12-18T16:49:34;36.63;;;18.67;;
19889;SDS011;10107;51.198;6.824;2022-12-18T16:53:36;33.83;;;18.02;;
19889;SDS011;10107;51.198;6.824;2022-12-18T16:57:39;37.30;;;18.98;;
19889;SDS011;10107;51.198;6.824;2022-12-18T17:01:41;35.75;;;20.17;;
19889;SDS011;10107;51.198;6.824;2022-12-18T17:05:42;33.80;;;16.95;;
19889;SDS011;10107;51.198;6.824;2022-12-18T17:09:44;35.28;;;18.80;;
19889;SDS011;10107;51.198;6.824;2022-12-18T17:13:47;37.05;;;18.83;;
19889;SDS011;10107;51.198;6.824;2022-12-18T17:17:49;35.83;;;18.85;;
19889;SDS011;10107;51.198;6.824;2022-12-18T17:21:50;38.40;;;19.80;;
19889;SDS011;10107;51.198;6.824;2022-12-18T17:25:53;36.17;;;18.95;;
19889;SDS011;10107;51.198;6.824;2022-12-18T17:29:56;39.08;;;20.05;;
19889;SDS011;10107;51.198;6.824;2022-12-18T17:34:00;42.30;;;20.10;;
19889;SDS011;10107;51.198;6.824;2022-12-18T17:38:02;38.40;;;19.70;;
19889;SDS011;10107;51.198;6.824;2022-12-18T17:42:04;40.55;;;21.17;;
19889;SDS011;10107;51.198;6.824;2022-12-18T17:46:07;39.47;;;20.63;;
19889;SDS011;10107;51.198;6.824;2022-12-18T17:50:10;39.08;;;20.75;;
19889;SDS011;10107;51.198;6.824;2022-12-18T17:54:12;43.75;;;21.15;;
19889;SDS011;10107;51.198;6.824;2022-12-18T17:58:14;41.90;;;21.33;;
19889;SDS011;10107;51.198;6.824;2022-12-18T18:02:17;41.53;;;21.40;;
19889;SDS011;10107;51.198;6.824;2022-12-18T18:06:18;42.47;;;21.02;;
19889;SDS011;10107;51.198;6.824;2022-12-18T18:10:20;42.50;;;21.55;;
19889;SDS011;10107;51.198;6.824;2022-12-18T18:14:22;44.40;;;23.10;;
19889;SDS011;10107;51.198;6.824;2022-12-18T18:18:25;44.03;;;21.33;;
19889;SDS011;10107;51.198;6.824;2022-12-18T18:22:26;42.33;;;21.13;;
19889;SDS011;10107;51.198;6.824;2022-12-18T18:26:29;46.78;;;22.52;;
19889;SDS011;10107;51.198;6.824;2022-12-18T18:30:31;48.22;;;23.05;;
19889;SDS011;10107;51.198;6.824;2022-12-18T18:34:34;47.95;;;22.60;;
19889;SDS011;10107;51.198;6.824;2022-12-18T18:38:36;47.13;;;23.70;;
19889;SDS011;10107;51.198;6.824;2022-12-18T18:42:39;45.47;;;21.80;;
19889;SDS011;10107;51.198;6.824;2022-12-18T18:46:40;44.80;;;22.55;;
19889;SDS011;10107;51.198;6.824;2022-12-18T18:50:43;50.30;;;23.08;;
19889;SDS011;10107;51.198;6.824;2022-12-18T18:54:45;46.50;;;22.10;;
19889;SDS011;10107;51.198;6.824;2022-12-18T18:58:48;47.90;;;23.45;;
19889;SDS011;10107;51.198;6.824;2022-12-18T19:02:50;51.50;;;22.97;;
19889;SDS011;10107;51.198;6.824;2022-12-18T19:06:54;43.05;;;21.63;;
19889;SDS011;10107;51.198;6.824;2022-12-18T19:10:56;44.42;;;20.65;;
19889;SDS011;10107;51.198;6.824;2022-12-18T19:15:01;45.75;;;22.88;;
19889;SDS011;10107;51.198;6.824;2022-12-18T19:19:03;53.80;;;24.23;;
19889;SDS011;10107;51.198;6.824;2022-12-18T19:23:07;47.05;;;22.27;;
19889;SDS011;10107;51.198;6.824;2022-12-18T19:27:09;45.80;;;22.58;;
19889;SDS011;10107;51.198;6.824;2022-12-18T19:31:12;46.42;;;22.80;;
19889;SDS011;10107;51.198;6.824;2022-12-18T19:35:15;49.55;;;22.40;;
19889;SDS011;10107;51.198;6.824;2022-12-18T19:39:19;44.88;;;22.35;;
19889;SDS011;10107;51.198;6.824;2022-12-18T19:43:21;47.50;;;22.02;;
19889;SDS011;10107;51.198;6.824;2022-12-18T19:47:22;40.92;;;20.88;;
19889;SDS011;10107;51.198;6.824;2022-12-18T19:55:30;42.78;;;20.58;;
19889;SDS011;10107;51.198;6.824;2022-12-18T19:59:32;39.83;;;19.58;;
19889;SDS011;10107;51.198;6.824;2022-12-18T20:03:36;44.63;;;22.02;;
19889;SDS011;10107;51.198;6.824;2022-12-18T20:11:43;38.80;;;18.63;;
19889;SDS011;10107;51.198;6.824;2022-12-18T20:15:46;44.45;;;20.30;;
19889;SDS011;10107;51.198;6.824;2022-12-18T20:19:48;44.08;;;21.30;;
19889;SDS011;10107;51.198;6.824;2022-12-18T20:23:49;39.85;;;19.92;;
19889;SDS011;10107;51.198;6.824;2022-12-18T20:27:56;42.20;;;20.25;;
19889;SDS011;10107;51.198;6.824;2022-12-18T20:32:00;47.17;;;21.42;;
19889;SDS011;10107;51.198;6.824;2022-12-18T20:36:02;43.10;;;20.13;;
19889;SDS011;10107;51.198;6.824;2022-12-18T20:40:06;43.65;;;21.25;;
19889;SDS011;10107;51.198;6.824;2022-12-18T20:44:13;45.25;;;21.02;;
19889;SDS011;10107;51.198;6.824;2022-12-18T20:48:20;44.80;;;20.85;;
19889;SDS011;10107;51.198;6.824;2022-12-18T20:52:22;42.30;;;21.90;;
19889;SDS011;10107;51.198;6.824;2022-12-18T20:56:24;40.47;;;19.25;;
19889;SDS011;10107;51.198;6.824;2022-12-18T21:00:28;40.03;;;19.50;;
19889;SDS011;10107;51.198;6.824;2022-12-18T21:04:30;44.65;;;21.98;;
19889;SDS011;10107;51.198;6.824;2022-12-18T21:08:32;40.20;;;20.25;;
19889;SDS011;10107;51.198;6.824;2022-12-18T21:12:36;45.20;;;21.92;;
19889;SDS011;10107;51.198;6.824;2022-12-18T21:16:48;42.13;;;21.10;;
19889;SDS011;10107;51.198;6.824;2022-12-18T21:20:51;43.38;;;20.55;;
19889;SDS011;10107;51.198;6.824;2022-12-18T21:24:52;39.78;;;19.63;;
19889;SDS011;10107;51.198;6.824;2022-12-18T21:28:54;39.95;;;19.33;;
19889;SDS011;10107;51.198;6.824;2022-12-18T21:33:00;40.60;;;19.95;;
19889;SDS011;10107;51.198;6.824;2022-12-18T21:37:03;45.00;;;21.42;;
19889;SDS011;10107;51.198;6.824;2022-12-18T21:41:06;44.63;;;19.85;;
19889;SDS011;10107;51.198;6.824;2022-12-18T21:45:30;41.78;;;20.10;;
19889;SDS011;10107;51.198;6.824;2022-12-18T21:49:34;48.10;;;22.02;;
19889;SDS011;10107;51.198;6.824;2022-12-18T21:53:36;42.40;;;20.90;;
19889;SDS011;10107;51.198;6.824;2022-12-18T21:57:37;45.85;;;22.00;;
19889;SDS011;10107;51.198;6.824;2022-12-18T22:01:39;40.40;;;20.35;;
19889;SDS011;10107;51.198;6.824;2022-12-18T22:05:42;45.05;;;21.15;;
19889;SDS011;10107;51.198;6.824;2022-12-18T22:09:44;45.65;;;20.67;;
19889;SDS011;10107;51.198;6.824;2022-12-18T22:13:47;50.33;;;21.10;;
19889;SDS011;10107;51.198;6.824;2022-12-18T22:17:49;46.78;;;21.27;;
19889;SDS011;10107;51.198;6.824;2022-12-18T22:21:53;44.63;;;20.80;;
19889;SDS011;10107;51.198;6.824;2022-12-18T22:25:55;45.70;;;21.35;;
19889;SDS011;10107;51.198;6.824;2022-12-18T22:29:57;46.33;;;21.50;;
19889;SDS011;10107;51.198;6.824;2022-12-18T22:34:05;49.42;;;22.88;;
19889;SDS011;10107;51.198;6.824;2022-12-18T22:38:10;51.53;;;22.67;;
19889;SDS011;10107;51.198;6.824;2022-12-18T22:42:11;42.80;;;21.35;;
19889;SDS011;10107;51.198;6.824;2022-12-18T22:46:14;46.55;;;21.23;;
19889;SDS011;10107;51.198;6.824;2022-12-18T22:50:19;44.28;;;21.30;;
19889;SDS011;10107;51.198;6.824;2022-12-18T22:54:25;45.30;;;21.48;;
19889;SDS011;10107;51.198;6.824;2022-12-18T22:58:28;45.35;;;21.50;;
19889;SDS011;10107;51.198;6.824;2022-12-18T23:02:31;47.35;;;22.25;;
19889;SDS011;10107;51.198;6.824;2022-12-18T23:06:33;45.85;;;22.27;;
19889;SDS011;10107;51.198;6.824;2022-12-18T23:10:37;49.33;;;23.58;;
19889;SDS011;10107;51.198;6.824;2022-12-18T23:14:40;48.63;;;22.02;;
19889;SDS011;10107;51.198;6.824;2022-12-18T23:18:42;46.42;;;22.67;;
19889;SDS011;10107;51.198;6.824;2022-12-18T23:22:44;49.63;;;23.23;;
19889;SDS011;10107;51.198;6.824;2022-12-18T23:26:50;54.65;;;24.20;;
19889;SDS011;10107;51.198;6.824;2022-12-18T23:30:51;46.72;;;21.92;;
19889;SDS011;10107;51.198;6.824;2022-12-18T23:34:56;49.97;;;23.25;;
19889;SDS011;10107;51.198;6.824;2022-12-18T23:38:59;48.33;;;23.42;;
19889;SDS011;10107;51.198;6.824;2022-12-18T23:43:04;52.80;;;24.27;;
19889;SDS011;10107;51.198;6.824;2022-12-18T23:47:06;52.38;;;23.70;;
19889;SDS011;10107;51.198;6.824;2022-12-18T23:51:09;45.30;;;21.27;;
19889;SDS011;10107;51.198;6.824;2022-12-18T23:55:13;47.00;;;22.75;;
19889;SDS011;10107;51.198;6.824;2022-12-18T23:59:18;51.92;;;24.90;;
